createdAt,value
2022-08-17T00:01:41.504Z,22.30
2022-08-17T00:04:20.169Z,22.30
2022-08-17T00:06:49.177Z,22.40
2022-08-17T00:09:19.222Z,22.40
2022-08-17T00:12:40.660Z,22.40
2022-08-17T00:14:37.811Z,22.40
2022-08-17T00:17:05.710Z,22.40
2022-08-17T00:19:33.365Z,22.40
2022-08-17T00:22:32.942Z,22.40
2022-08-17T00:24:49.002Z,22.30
2022-08-17T00:27:15.705Z,22.30
2022-08-17T00:29:44.807Z,22.30
2022-08-17T00:33:10.958Z,22.40
2022-08-17T00:35:03.240Z,22.50
2022-08-17T00:37:29.893Z,22.60
2022-08-17T00:39:56.636Z,22.50
2022-08-17T00:42:26.407Z,22.50
2022-08-17T00:44:57.138Z,22.40
2022-08-17T00:47:23.869Z,22.20
2022-08-17T00:49:51.216Z,22.20
2022-08-17T00:52:22.327Z,22.20
2022-08-17T00:54:53.277Z,22.20
2022-08-17T00:57:23.248Z,22.10
2022-08-17T00:59:56.015Z,22.00
2022-08-17T01:02:34.238Z,22.00
2022-08-17T01:05:08.575Z,22.20
2022-08-17T01:07:37.894Z,22.20
2022-08-17T01:10:58.690Z,22.10
2022-08-17T01:12:57.379Z,22.00
2022-08-17T01:15:24.208Z,21.90
2022-08-17T01:17:50.920Z,21.90
2022-08-17T01:20:17.778Z,21.80
2022-08-17T01:22:45.281Z,21.90
2022-08-17T01:25:13.447Z,21.90
2022-08-17T01:27:41.609Z,21.80
2022-08-17T01:30:56.894Z,21.90
2022-08-17T01:32:57.892Z,21.90
2022-08-17T01:35:24.711Z,21.90
2022-08-17T01:37:52.287Z,21.80
2022-08-17T01:40:25.135Z,21.80
2022-08-17T01:42:55.477Z,21.80
2022-08-17T01:45:26.384Z,21.70
2022-08-17T01:47:54.239Z,21.60
2022-08-17T01:50:24.454Z,21.60
2022-08-17T01:52:55.615Z,21.60
2022-08-17T01:55:29.270Z,21.80
2022-08-17T01:57:55.943Z,21.80
2022-08-17T02:00:23.475Z,21.80
2022-08-17T02:02:50.433Z,22.00
2022-08-17T02:05:18.014Z,22.00
2022-08-17T02:07:59.540Z,22.00
2022-08-17T02:10:33.988Z,22.00
2022-08-17T02:13:02.086Z,21.90
2022-08-17T02:15:29.037Z,21.80
2022-08-17T02:17:55.930Z,21.80
2022-08-17T02:20:42.436Z,21.70
2022-08-17T02:23:11.126Z,21.80
2022-08-17T02:25:39.620Z,21.80
2022-08-17T02:28:06.459Z,21.70
2022-08-17T02:31:02.201Z,21.70
2022-08-17T02:33:21.289Z,21.60
2022-08-17T02:35:48.185Z,21.50
2022-08-17T02:38:15.677Z,21.50
2022-08-17T02:40:43.161Z,21.50
2022-08-17T02:43:13.092Z,21.40
2022-08-17T02:45:40.139Z,21.50
2022-08-17T02:48:07.218Z,21.50
2022-08-17T02:50:33.884Z,21.50
2022-08-17T02:53:02.311Z,21.40
2022-08-17T02:55:32.359Z,21.30
2022-08-17T02:57:59.831Z,21.20
2022-08-17T03:00:30.231Z,21.20
2022-08-17T03:02:57.252Z,21.10
2022-08-17T03:05:26.811Z,21.20
2022-08-17T03:07:53.972Z,21.10
2022-08-17T03:10:22.000Z,21.20
2022-08-17T03:12:49.598Z,21.20
2022-08-17T03:15:20.700Z,21.20
2022-08-17T03:17:48.279Z,21.20
2022-08-17T03:20:15.817Z,21.20
2022-08-17T03:22:48.079Z,21.20
2022-08-17T03:25:23.421Z,21.10
2022-08-17T03:27:51.524Z,21.00
2022-08-17T03:30:19.262Z,21.00
2022-08-17T03:32:50.726Z,20.90
2022-08-17T03:35:21.167Z,20.90
2022-08-17T03:37:48.002Z,20.80
2022-08-17T03:40:39.912Z,20.90
2022-08-17T03:43:14.538Z,20.90
2022-08-17T03:46:01.211Z,20.90
2022-08-17T03:48:46.344Z,20.90
2022-08-17T03:51:37.061Z,20.90
2022-08-17T03:54:23.702Z,21.10
2022-08-17T03:56:59.322Z,21.20
2022-08-17T03:59:26.134Z,21.20
2022-08-17T04:01:56.578Z,21.00
2022-08-17T04:04:27.512Z,21.00
2022-08-17T04:06:55.615Z,21.00
2022-08-17T04:09:22.336Z,21.00
2022-08-17T04:11:49.135Z,20.90
2022-08-17T04:14:16.011Z,20.90
2022-08-17T04:16:42.771Z,20.90
2022-08-17T04:19:10.168Z,21.10
2022-08-17T04:21:36.887Z,21.20
2022-08-17T04:24:04.076Z,21.20
2022-08-17T04:26:53.379Z,21.20
2022-08-17T04:29:18.595Z,21.20
2022-08-17T04:31:45.781Z,21.30
2022-08-17T04:34:13.226Z,21.30
2022-08-17T04:36:39.914Z,21.40
2022-08-17T04:39:16.845Z,21.40
2022-08-17T04:42:01.785Z,21.50
2022-08-17T04:44:37.748Z,21.40
2022-08-17T04:47:06.489Z,21.40
2022-08-17T04:49:34.442Z,21.40
2022-08-17T04:52:04.314Z,21.40
2022-08-17T04:54:31.550Z,21.50
2022-08-17T04:56:58.282Z,21.60
2022-08-17T04:59:25.055Z,21.70
2022-08-17T05:01:52.108Z,21.80
2022-08-17T05:04:34.036Z,21.80
2022-08-17T05:07:03.810Z,21.90
2022-08-17T05:09:30.885Z,22.00
2022-08-17T05:12:00.987Z,22.10
2022-08-17T05:14:33.392Z,22.20
2022-08-17T05:17:00.992Z,21.50
2022-08-17T05:19:28.348Z,22.40
2022-08-17T05:21:55.142Z,22.50
2022-08-17T05:24:39.129Z,22.60
2022-08-17T05:27:09.241Z,22.70
2022-08-17T05:29:36.216Z,22.80
2022-08-17T05:32:38.982Z,22.80
2022-08-17T05:34:58.738Z,23.00
2022-08-17T05:37:25.559Z,23.20
2022-08-17T05:39:53.898Z,23.30
2022-08-17T05:42:20.794Z,23.30
2022-08-17T05:44:47.971Z,23.30
2022-08-17T05:47:14.835Z,23.50
2022-08-17T05:49:41.697Z,23.70
2022-08-17T05:52:20.390Z,23.80
2022-08-17T05:55:07.650Z,23.90
2022-08-17T05:57:59.631Z,24.20
2022-08-17T06:00:31.322Z,24.30
2022-08-17T06:03:15.141Z,24.30
2022-08-17T06:05:59.479Z,24.30
2022-08-17T06:08:33.364Z,24.30
2022-08-17T06:11:09.194Z,24.40
2022-08-17T06:13:54.396Z,24.40
2022-08-17T06:16:34.470Z,24.40
2022-08-17T06:19:06.936Z,24.60
2022-08-17T06:21:38.115Z,24.70
2022-08-17T06:24:19.234Z,24.70
2022-08-17T06:26:47.800Z,24.80
2022-08-17T06:29:26.826Z,24.90
2022-08-17T06:31:53.799Z,25.00
2022-08-17T06:34:21.026Z,25.10
2022-08-17T06:36:56.612Z,25.40
2022-08-17T06:39:37.037Z,25.60
2022-08-17T06:43:02.465Z,25.80
2022-08-17T06:45:07.829Z,25.90
2022-08-17T06:47:42.230Z,26.10
2022-08-17T06:50:17.934Z,26.20
2022-08-17T06:52:53.173Z,26.30
2022-08-17T06:55:25.894Z,26.10
2022-08-17T06:57:57.359Z,26.10
2022-08-17T07:00:28.961Z,26.10
2022-08-17T07:03:17.793Z,26.30
2022-08-17T07:05:48.282Z,26.50
2022-08-17T07:08:22.684Z,26.60
2022-08-17T07:10:56.285Z,26.80
2022-08-17T07:13:31.092Z,27.20
2022-08-17T07:16:07.411Z,27.10
2022-08-17T07:18:34.597Z,27.20
2022-08-17T07:21:11.040Z,27.30
2022-08-17T07:23:52.781Z,27.50
2022-08-17T07:26:22.614Z,27.70
2022-08-17T07:28:50.876Z,27.90
2022-08-17T07:31:17.790Z,27.90
2022-08-17T07:34:00.870Z,27.80
2022-08-17T07:36:33.058Z,27.70
2022-08-17T07:39:01.488Z,27.80
2022-08-17T07:41:53.354Z,27.90
2022-08-17T07:44:19.258Z,27.90
2022-08-17T07:47:14.246Z,28.00
2022-08-17T07:49:45.357Z,28.20
2022-08-17T07:52:50.986Z,28.30
2022-08-17T07:55:29.036Z,28.40
2022-08-17T07:57:56.755Z,28.60
2022-08-17T08:00:31.651Z,28.70
2022-08-17T08:03:16.981Z,28.70
2022-08-17T08:05:52.986Z,28.70
2022-08-17T08:08:27.380Z,28.70
2022-08-17T08:11:04.798Z,29.00
2022-08-17T08:13:32.571Z,28.90
2022-08-17T08:16:28.921Z,29.00
2022-08-17T08:18:58.362Z,29.10
2022-08-17T08:21:39.108Z,29.00
2022-08-17T08:24:30.797Z,29.00
2022-08-17T08:27:09.235Z,29.10
2022-08-17T08:29:44.051Z,29.20
2022-08-17T08:32:18.699Z,29.30
2022-08-17T08:35:01.801Z,29.50
2022-08-17T08:37:43.102Z,29.50
2022-08-17T08:40:20.025Z,29.50
2022-08-17T08:42:56.336Z,29.70
2022-08-17T08:45:33.724Z,29.70
2022-08-17T08:48:53.835Z,29.60
2022-08-17T08:51:10.297Z,29.50
2022-08-17T08:53:45.429Z,29.60
2022-08-17T08:56:22.087Z,29.80
2022-08-17T08:59:12.937Z,29.90
2022-08-17T09:01:50.879Z,29.90
2022-08-17T09:05:02.710Z,30.10
2022-08-17T09:07:36.814Z,30.00
2022-08-17T09:10:13.213Z,30.20
2022-08-17T09:12:48.691Z,30.30
2022-08-17T09:15:19.532Z,30.30
2022-08-17T09:18:08.848Z,30.30
2022-08-17T09:20:50.215Z,30.40
2022-08-17T09:23:29.675Z,30.40
2022-08-17T09:26:02.462Z,30.50
2022-08-17T09:28:33.546Z,30.30
2022-08-17T09:31:06.347Z,30.10
2022-08-17T09:33:39.539Z,30.00
2022-08-17T09:36:11.429Z,30.10
2022-08-17T09:38:44.890Z,30.30
2022-08-17T09:41:16.175Z,30.20
2022-08-17T09:43:49.118Z,30.30
2022-08-17T09:46:21.740Z,30.50
2022-08-17T09:48:55.604Z,30.70
2022-08-17T09:51:30.641Z,31.00
2022-08-17T09:54:14.824Z,30.90
2022-08-17T09:57:11.790Z,30.70
2022-08-17T09:59:57.732Z,30.70
2022-08-17T10:02:59.997Z,30.80
2022-08-17T10:05:36.817Z,31.00
2022-08-17T10:08:15.393Z,31.20
2022-08-17T10:10:52.394Z,31.40
2022-08-17T10:13:33.317Z,31.50
2022-08-17T10:16:07.112Z,31.40
2022-08-17T10:18:45.622Z,31.30
2022-08-17T10:21:32.892Z,31.30
2022-08-17T10:24:25.572Z,31.30
2022-08-17T10:26:56.942Z,31.20
2022-08-17T10:29:30.570Z,31.40
2022-08-17T10:32:24.113Z,31.40
2022-08-17T10:35:11.713Z,31.50
2022-08-17T10:38:07.616Z,31.60
2022-08-17T10:40:43.394Z,31.80
2022-08-17T10:43:33.751Z,31.90
2022-08-17T10:46:09.509Z,31.80
2022-08-17T10:49:24.370Z,31.90
2022-08-17T10:51:53.694Z,31.70
2022-08-17T10:54:45.270Z,31.70
2022-08-17T10:57:39.483Z,31.80
2022-08-17T11:00:14.755Z,31.70
2022-08-17T11:02:48.950Z,31.70
2022-08-17T11:05:44.177Z,32.00
2022-08-17T11:08:51.253Z,32.20
2022-08-17T11:11:46.856Z,32.20
2022-08-17T11:14:32.751Z,32.20
2022-08-17T11:17:13.838Z,32.30
2022-08-17T11:19:54.386Z,32.40
2022-08-17T11:23:08.831Z,32.50
2022-08-17T11:25:39.078Z,32.80
2022-08-17T11:28:13.778Z,32.80
2022-08-17T11:30:48.814Z,32.80
2022-08-17T11:33:55.165Z,32.80
2022-08-17T11:36:33.117Z,32.70
2022-08-17T11:39:04.730Z,32.50
2022-08-17T11:41:38.901Z,32.50
2022-08-17T11:44:31.660Z,32.40
2022-08-17T11:47:32.444Z,32.10
2022-08-17T11:50:43.537Z,32.30
2022-08-17T11:53:44.324Z,33.00
2022-08-17T11:56:29.673Z,33.40
2022-08-17T11:58:56.573Z,33.50
2022-08-17T12:01:51.183Z,33.20
2022-08-17T12:04:27.173Z,32.90
2022-08-17T12:06:59.071Z,33.40
2022-08-17T12:09:29.678Z,33.40
2022-08-17T12:12:13.389Z,32.80
2022-08-17T12:17:52.228Z,32.60
2022-08-17T12:20:24.196Z,33.30
2022-08-17T12:23:00.387Z,33.60
2022-08-17T12:25:34.196Z,33.80
2022-08-17T12:28:06.688Z,33.70
2022-08-17T12:30:35.635Z,33.30
2022-08-17T12:33:02.551Z,32.80
2022-08-17T12:35:32.497Z,32.40
2022-08-17T12:38:00.493Z,32.20
2022-08-17T12:40:30.769Z,32.10
2022-08-17T12:43:00.176Z,32.30
2022-08-17T12:45:30.177Z,32.50
2022-08-17T12:48:02.011Z,32.60
2022-08-17T12:50:31.330Z,32.70
2022-08-17T12:53:02.489Z,32.90
2022-08-17T12:55:35.361Z,33.30
2022-08-17T12:58:02.532Z,33.70
2022-08-17T13:00:31.481Z,33.50
2022-08-17T13:03:00.392Z,33.20
2022-08-17T13:05:29.342Z,33.10
2022-08-17T13:07:58.605Z,33.50
2022-08-17T13:10:32.127Z,34.20
2022-08-17T13:13:04.196Z,34.80
2022-08-17T13:15:35.906Z,34.70
2022-08-17T13:18:06.945Z,35.00
2022-08-17T13:20:35.818Z,35.40
2022-08-17T13:23:11.433Z,35.80
2022-08-17T13:25:39.302Z,36.50
2022-08-17T13:28:06.120Z,36.40
2022-08-17T13:30:33.292Z,36.80
2022-08-17T13:33:04.662Z,36.90
2022-08-17T13:35:43.761Z,37.10
2022-08-17T13:38:33.052Z,36.90
2022-08-17T13:40:59.910Z,36.40
2022-08-17T13:43:44.118Z,36.10
2022-08-17T13:46:19.386Z,35.60
2022-08-17T13:48:47.272Z,35.10
2022-08-17T13:51:27.444Z,34.70
2022-08-17T13:54:02.360Z,34.60
2022-08-17T13:56:53.513Z,34.70
2022-08-17T13:59:52.601Z,35.20
2022-08-17T14:02:20.354Z,35.10
2022-08-17T14:04:48.442Z,35.50
2022-08-17T14:07:29.568Z,36.70
2022-08-17T14:10:01.040Z,37.60
2022-08-17T14:12:30.124Z,39.40
2022-08-17T14:14:58.135Z,41.20
2022-08-17T14:17:25.435Z,41.70
2022-08-17T14:19:52.776Z,41.20
2022-08-17T14:22:24.995Z,40.00
2022-08-17T14:24:52.149Z,39.20
2022-08-17T14:27:21.213Z,37.70
2022-08-17T14:29:48.692Z,37.30
2022-08-17T14:32:19.789Z,37.10
2022-08-17T14:34:48.862Z,36.40
2022-08-17T14:37:15.903Z,35.30
2022-08-17T14:39:43.053Z,34.70
2022-08-17T14:42:10.760Z,34.70
2022-08-17T14:44:38.981Z,34.70
2022-08-17T14:47:06.916Z,34.80
2022-08-17T14:49:33.665Z,34.70
2022-08-17T14:52:00.720Z,34.50
2022-08-17T14:54:33.321Z,34.30
2022-08-17T14:57:23.794Z,34.10
2022-08-17T14:59:50.707Z,33.70
2022-08-17T15:02:30.250Z,33.90
2022-08-17T15:04:59.847Z,33.70
2022-08-17T15:07:30.277Z,33.60
2022-08-17T15:09:58.130Z,33.80
2022-08-17T15:12:28.641Z,33.80
2022-08-17T15:14:59.934Z,35.00
2022-08-17T15:17:26.681Z,35.50
2022-08-17T15:20:15.012Z,35.10
2022-08-17T15:22:43.770Z,34.60
2022-08-17T15:25:11.547Z,34.10
2022-08-17T15:27:39.590Z,33.90
2022-08-17T15:30:09.213Z,33.90
2022-08-17T15:32:38.223Z,33.80
2022-08-17T15:35:08.135Z,34.10
2022-08-17T15:37:35.646Z,36.20
2022-08-17T15:40:03.005Z,38.50
2022-08-17T15:42:29.890Z,39.30
2022-08-17T15:44:57.222Z,38.30
2022-08-17T15:47:25.348Z,37.00
2022-08-17T15:49:56.625Z,36.00
2022-08-17T15:52:29.780Z,35.30
2022-08-17T15:54:59.023Z,34.70
2022-08-17T15:57:26.268Z,34.20
2022-08-17T15:59:58.481Z,34.00
2022-08-17T16:03:14.192Z,33.80
2022-08-17T16:05:22.215Z,33.60
2022-08-17T16:07:52.190Z,33.60
2022-08-17T16:10:20.309Z,33.80
2022-08-17T16:12:48.693Z,33.90
2022-08-17T16:15:16.293Z,33.80
2022-08-17T16:17:43.759Z,33.80
2022-08-17T16:20:20.148Z,33.70
2022-08-17T16:22:49.729Z,33.50
2022-08-17T16:25:20.452Z,33.10
2022-08-17T16:27:49.666Z,32.90
2022-08-17T16:30:17.866Z,32.60
2022-08-17T16:32:54.309Z,32.40
2022-08-17T16:35:25.671Z,32.10
2022-08-17T16:37:54.276Z,32.00
2022-08-17T16:40:22.782Z,31.90
2022-08-17T16:42:50.686Z,31.80
2022-08-17T16:45:20.224Z,31.70
2022-08-17T16:47:49.272Z,31.50
2022-08-17T16:50:19.792Z,31.60
2022-08-17T16:52:47.773Z,31.60
2022-08-17T16:55:17.350Z,31.60
2022-08-17T16:57:47.281Z,31.50
2022-08-17T17:00:18.582Z,31.50
2022-08-17T17:02:48.676Z,31.40
2022-08-17T17:05:32.248Z,31.30
2022-08-17T17:08:04.128Z,31.20
2022-08-17T17:10:37.197Z,31.20
2022-08-17T17:13:07.299Z,31.20
2022-08-17T17:15:46.141Z,31.20
2022-08-17T17:18:15.438Z,31.20
2022-08-17T17:20:47.801Z,31.10
2022-08-17T17:23:25.355Z,31.00
2022-08-17T17:26:03.130Z,30.90
2022-08-17T17:28:37.994Z,30.70
2022-08-17T17:31:10.438Z,30.70
2022-08-17T17:33:43.754Z,30.60
2022-08-17T17:36:22.610Z,30.60
2022-08-17T17:38:53.211Z,30.50
2022-08-17T17:41:26.853Z,30.30
2022-08-17T17:44:02.786Z,30.20
2022-08-17T17:46:34.565Z,30.10
2022-08-17T17:49:02.203Z,30.00
2022-08-17T17:52:09.494Z,29.90
2022-08-17T17:54:37.981Z,29.80
2022-08-17T17:57:10.910Z,29.70
2022-08-17T17:59:46.787Z,29.60
2022-08-17T18:02:51.743Z,29.60
2022-08-17T18:05:34.051Z,29.50
2022-08-17T18:08:10.735Z,29.40
2022-08-17T18:10:48.971Z,29.30
2022-08-17T18:13:26.700Z,29.20
2022-08-17T18:15:55.705Z,29.10
2022-08-17T18:18:36.938Z,29.00
2022-08-17T18:21:15.772Z,28.90
2022-08-17T18:23:57.208Z,28.80
2022-08-17T18:26:45.425Z,28.70
2022-08-17T18:29:25.557Z,28.60
2022-08-17T18:32:23.106Z,28.40
2022-08-17T18:34:51.686Z,28.50
2022-08-17T18:37:42.455Z,28.50
2022-08-17T18:40:26.569Z,28.50
2022-08-17T18:43:02.222Z,28.40
2022-08-17T18:45:34.969Z,28.40
2022-08-17T18:48:02.157Z,28.30
2022-08-17T18:50:36.237Z,28.30
2022-08-17T18:53:34.451Z,28.20
2022-08-17T18:56:27.044Z,28.10
2022-08-17T18:59:03.861Z,28.10
2022-08-17T19:01:52.584Z,28.00
2022-08-17T19:04:35.139Z,27.90
2022-08-17T19:07:09.037Z,27.90
2022-08-17T19:09:41.511Z,27.90
2022-08-17T19:12:13.734Z,27.90
2022-08-17T19:14:41.019Z,27.80
2022-08-17T19:17:13.821Z,27.70
2022-08-17T19:19:48.621Z,27.70
2022-08-17T19:22:30.653Z,27.70
2022-08-17T19:25:09.462Z,27.60
2022-08-17T19:27:46.219Z,27.60
2022-08-17T19:30:15.292Z,27.60
2022-08-17T19:32:42.049Z,27.70
2022-08-17T19:35:15.005Z,27.70
2022-08-17T19:37:54.511Z,27.60
2022-08-17T19:40:51.759Z,27.70
2022-08-17T19:43:27.479Z,27.60
2022-08-17T19:46:05.273Z,27.60
2022-08-17T19:48:41.540Z,27.60
2022-08-17T19:51:14.030Z,27.60
2022-08-17T19:54:05.037Z,27.60
2022-08-17T19:56:41.274Z,27.60
2022-08-17T19:59:15.524Z,27.50
2022-08-17T20:01:47.605Z,27.40
2022-08-17T20:04:35.291Z,27.40
2022-08-17T20:07:07.709Z,27.40
2022-08-17T20:09:37.822Z,27.30
2022-08-17T20:12:10.382Z,27.30
2022-08-17T20:14:41.606Z,27.30
2022-08-17T20:17:21.039Z,27.30
2022-08-17T20:19:54.732Z,27.30
2022-08-17T20:22:28.507Z,27.20
2022-08-17T20:25:06.280Z,27.30
2022-08-17T20:27:47.449Z,27.20
2022-08-17T20:30:32.993Z,27.20
2022-08-17T20:33:01.920Z,27.20
2022-08-17T20:35:30.510Z,27.30
2022-08-17T20:38:03.900Z,27.20
2022-08-17T20:40:38.350Z,27.10
2022-08-17T20:43:38.717Z,27.10
2022-08-17T20:46:17.665Z,27.20
2022-08-17T20:48:48.058Z,27.20
2022-08-17T20:51:37.902Z,27.20
2022-08-17T20:54:33.372Z,27.20
2022-08-17T20:57:00.857Z,27.20
2022-08-17T21:00:14.413Z,27.20
2022-08-17T21:02:44.092Z,27.20
2022-08-17T21:05:30.313Z,27.20
2022-08-17T21:08:00.601Z,27.10
2022-08-17T21:10:35.741Z,27.10
2022-08-17T21:13:47.941Z,27.10
2022-08-17T21:16:53.516Z,27.00
2022-08-17T21:20:00.212Z,27.00
2022-08-17T21:22:37.169Z,26.90
2022-08-17T21:25:14.377Z,26.90
2022-08-17T21:27:48.995Z,26.90
2022-08-17T21:30:46.242Z,26.90
2022-08-17T21:33:24.755Z,26.90
2022-08-17T21:36:14.539Z,26.90
2022-08-17T21:38:57.429Z,26.80
2022-08-17T21:41:28.165Z,26.80
2022-08-17T21:44:02.134Z,26.80
2022-08-17T21:46:31.670Z,26.80
2022-08-17T21:49:04.456Z,26.60
2022-08-17T21:51:45.141Z,26.70
2022-08-17T21:54:27.050Z,26.60
2022-08-17T21:56:54.050Z,26.60
2022-08-17T21:59:26.631Z,26.60
2022-08-17T22:01:56.894Z,26.50
2022-08-17T22:04:29.569Z,26.50
2022-08-17T22:06:59.483Z,26.50
2022-08-17T22:09:28.877Z,26.40
2022-08-17T22:12:03.610Z,26.40
2022-08-17T22:14:52.867Z,26.40
2022-08-17T22:17:23.378Z,26.40
2022-08-17T22:19:52.992Z,26.40
2022-08-17T22:22:58.584Z,26.30
2022-08-17T22:25:27.447Z,26.30
2022-08-17T22:27:56.823Z,26.30
2022-08-17T22:30:31.083Z,26.30
2022-08-17T22:32:59.397Z,26.30
2022-08-17T22:35:39.734Z,26.30
2022-08-17T22:38:27.443Z,26.20
2022-08-17T22:41:12.412Z,26.20
2022-08-17T22:43:41.543Z,26.20
2022-08-17T22:46:12.082Z,26.20
2022-08-17T22:48:47.894Z,26.10
2022-08-17T22:51:20.366Z,26.10
2022-08-17T22:54:08.600Z,26.10
2022-08-17T22:56:54.597Z,26.10
2022-08-17T22:59:44.319Z,26.10
2022-08-17T23:02:15.359Z,26.10
2022-08-17T23:04:45.105Z,26.00
2022-08-17T23:07:11.902Z,26.00
2022-08-17T23:09:39.351Z,26.00
2022-08-17T23:12:08.969Z,26.00
2022-08-17T23:14:40.201Z,26.00
2022-08-17T23:17:07.506Z,26.00
2022-08-17T23:19:35.175Z,26.00
2022-08-17T23:22:04.708Z,25.90
2022-08-17T23:24:35.059Z,26.00
2022-08-17T23:27:06.943Z,25.90
2022-08-17T23:29:38.519Z,25.90
2022-08-17T23:32:06.604Z,25.90
2022-08-17T23:34:33.398Z,25.90
2022-08-17T23:37:01.533Z,25.90
2022-08-17T23:39:28.549Z,25.80
2022-08-17T23:41:56.796Z,25.80
2022-08-17T23:44:25.191Z,25.70
2022-08-17T23:46:54.343Z,25.80
2022-08-17T23:49:21.055Z,25.80
2022-08-17T23:51:49.146Z,25.80
2022-08-17T23:54:22.416Z,25.80
2022-08-17T23:56:49.405Z,25.70
2022-08-17T23:59:18.006Z,25.70
